Latest Weather Observations for Hindmarsh Island

IDS60901

Issued at 11:21 pm CST Friday 23 April 2021 (issued every 10 minutes, with the page automatically refreshed every 10 minutes)

About weather observations | Map of Adelaide area stations | Latest observations for Adelaide area | Other Formats
Station Details ID: 023894 Name: HINDMARSH ISLAND AWS Lat: -35.52 Lon: 138.82 Height: 11.0 m
Data from the previous 72 hours. | See also: Recent months at Hindmarsh Island
Date/Time
CST
Temp
°C
App
Temp
°C
Dew
Point
°C
Rel
Hum
%
Delta-T
°C
Wind Press
QNH
hPa
Press
MSL
hPa
Rain since
9am
mm
Dir  Spd
km/h
Gust
km/h
Spd
kts
Gust
kts
23/11:00pm 14.1 13.0 12.0 87 1.1 W 9 11 5 6 1023.9 1023.9 0.2
23/10:30pm 13.8 13.0 11.8 88 1.1 NW 7 9 4 5 1024.0 1024.0 0.2
23/10:00pm 13.9 13.1 11.8 87 1.1 NW 7 9 4 5 1023.8 1023.8 0.2
23/09:30pm 14.0 13.3 12.0 88 1.1 NW 7 9 4 5 1023.8 1023.8 0.2
23/09:00pm 13.8 13.2 12.2 90 0.9 NW 7 9 4 5 1023.6 1023.6 0.2
23/08:30pm 13.8 13.4 12.4 91 0.8 WNW 6 7 3 4 1023.4 1023.4 0.0
23/08:00pm 13.9 13.0 12.5 91 0.8 NW 9 11 5 6 1023.3 1023.3 0.0
23/07:30pm 14.0 13.6 12.4 90 0.9 WSW 6 9 3 5 1023.1 1023.1 0.0
23/07:00pm 14.6 11.4 13.1 91 0.8 SW 22 26 12 14 1023.0 1023.0 0.0
23/06:30pm 15.1 12.0 12.2 83 1.6 SW 20 26 11 14 1022.6 1022.6 0.0
23/06:00pm 15.6 12.6 12.0 79 1.9 SSW 19 20 10 11 1022.1 1022.1 0.0
23/05:30pm 15.6 12.6 12.4 81 1.7 SSW 20 24 11 13 1021.8 1021.8 0.0
23/05:00pm 15.9 12.7 11.9 77 2.2 SSW 20 24 11 13 1021.7 1021.7 0.0
23/04:30pm 16.3 13.0 11.7 74 2.5 SSW 20 28 11 15 1021.4 1021.4 0.0
23/04:00pm 16.4 12.7 11.6 73 2.6 SSW 22 28 12 15 1021.2 1021.2 0.0
23/03:30pm 17.4 13.4 11.9 70 3.0 SSW 24 30 13 16 1021.1 1021.1 0.0
23/03:00pm 16.9 12.9 11.8 72 2.8 SSW 24 30 13 16 1021.0 1021.0 0.0
23/02:30pm 17.7 13.4 12.2 70 3.0 SSW 26 30 14 16 1021.0 1021.0 0.0
23/02:00pm 17.7 13.3 12.8 73 2.7 SSW 28 32 15 17 1020.9 1020.9 0.0
23/01:30pm 18.2 14.5 12.6 70 3.1 SSW 24 30 13 16 1021.0 1021.0 0.0
23/01:00pm 17.5 13.2 12.2 71 2.9 SSW 26 32 14 17 1021.2 1021.2 0.0
23/12:30pm 17.4 13.6 12.5 73 2.7 S 24 30 13 16 1021.4 1021.4 0.0
23/12:00pm 17.6 13.4 12.3 71 2.9 SSW 26 32 14 17 1021.9 1021.9 0.0
23/11:30am 18.0 14.8 11.3 65 3.6 S 19 24 10 13 1022.2 1022.2 0.0
23/11:00am 18.0 14.8 12.0 68 3.3 SW 20 30 11 16 1022.2 1022.2 0.0
23/10:30am 17.6 14.0 10.0 61 4.0 SW 19 24 10 13 1022.2 1022.2 0.0
23/10:00am 16.7 13.9 11.4 71 2.9 WSW 17 22 9 12 1022.3 1022.3 0.0
23/09:30am 16.7 14.7 11.6 72 2.8 WSW 13 19 7 10 1022.1 1022.1 0.0
23/09:00am 15.8 13.9 11.8 77 2.2 W 13 17 7 9 1021.9 1021.9 0.4
23/08:30am 14.6 13.1 11.9 84 1.5 WNW 11 17 6 9 1021.7 1021.7 0.4
23/08:00am 14.2 12.8 12.1 87 1.1 WNW 11 15 6 8 1021.4 1021.4 0.4
23/07:30am 13.7 11.9 12.1 90 0.9 WNW 13 17 7 9 1021.1 1021.1 0.4
23/07:00am 14.2 11.5 11.7 85 1.3 WSW 17 24 9 13 1020.7 1020.7 0.2
23/06:30am 13.4 11.1 11.6 89 1.0 WNW 15 19 8 10 1020.6 1020.6 0.2
23/06:00am 13.6 11.3 11.7 88 1.0 W 15 24 8 13 1020.5 1020.5 0.2
23/05:30am 13.6 11.3 11.8 89 1.0 WNW 15 20 8 11 1020.0 1020.0 0.2
23/05:00am 14.2 11.6 12.1 87 1.1 WSW 17 24 9 13 1019.7 1019.7 0.2
23/04:30am 13.0 11.2 10.7 86 1.2 WNW 11 13 6 7 1019.5 1019.5 0.2
23/04:00am 12.7 10.4 10.6 87 1.1 NW 13 15 7 8 1019.5 1019.5 0.2
23/03:30am 13.4 11.7 11.1 86 1.2 WNW 11 15 6 8 1019.3 1019.3 0.2
23/03:00am 13.9 10.8 11.6 86 1.2 W 19 26 10 14 1019.3 1019.3 0.2
23/02:30am 13.6 11.5 11.1 85 1.3 WNW 13 17 7 9 1019.4 1019.4 0.2
23/02:00am 14.0 11.7 11.9 87 1.1 W 15 20 8 11 1019.3 1019.3 0.2
23/01:30am 14.2 11.0 11.4 83 1.5 W 19 24 10 13 1019.3 1019.3 0.2
23/01:00am 13.7 11.2 11.0 84 1.4 W 15 19 8 10 1019.3 1019.3 0.2
23/12:30am 13.7 10.4 10.9 83 1.5 W 19 24 10 13 1019.2 1019.2 0.2
23/12:00am 13.8 10.5 10.8 82 1.6 WNW 19 24 10 13 1019.2 1019.2 0.2
 
Date/Time
CST
Temp
°C
App
Temp
°C
Dew
Point
°C
Rel
Hum
%
Delta-T
°C
Wind Press
QNH
hPa
Press
MSL
hPa
Rain since
9am
mm
Dir  Spd
km/h
Gust
km/h
Spd
kts
Gust
kts
22/11:30pm 13.8 11.3 11.0 83 1.5 WNW 15 19 8 10 1019.4 1019.4 0.2
22/11:00pm 14.2 11.2 10.8 80 1.8 WNW 17 20 9 11 1019.5 1019.5 0.2
22/10:30pm 14.3 10.7 11.8 85 1.3 W 22 32 12 17 1019.7 1019.7 0.2
22/10:00pm 14.5 12.0 11.1 80 1.8 WNW 15 20 8 11 1019.8 1019.8 0.2
22/09:30pm 14.8 12.0 11.4 80 1.8 W 17 24 9 13 1019.7 1019.7 0.2
22/09:00pm 15.3 11.9 11.3 77 2.1 W 20 32 11 17 1019.3 1019.3 0.2
22/08:30pm 15.3 11.9 11.3 77 2.1 WSW 20 28 11 15 1019.3 1019.3 0.2
22/08:00pm 15.1 11.8 11.5 79 1.9 WSW 20 26 11 14 1019.3 1019.3 0.2
22/07:30pm 15.0 9.5 12.0 82 1.6 SW 32 43 17 23 1019.0 1019.0 0.2
22/07:09pm 14.9 10.8 12.8 87 1.2 WSW 26 41 14 22 1018.8 1018.8 0.2
22/07:00pm 15.4 13.2 12.0 80 1.8 WSW 15 22 8 12 1018.8 1018.8 0.2
22/06:30pm 15.8 14.2 11.4 75 2.4 WNW 11 17 6 9 1018.4 1018.4 0.0
22/06:00pm 16.0 13.7 11.6 75 2.4 W 15 22 8 12 1018.2 1018.2 0.0
22/05:30pm 15.5 12.4 11.7 78 2.0 WSW 19 28 10 15 1017.9 1017.9 0.0
22/05:00pm 16.4 13.0 10.5 68 3.1 WSW 19 28 10 15 1017.7 1017.7 0.0
22/04:30pm 16.3 11.7 11.2 72 2.7 SW 26 32 14 17 1017.4 1017.4 0.0
22/04:00pm 16.6 13.9 10.5 67 3.2 WSW 15 22 8 12 1017.5 1017.5 0.0
22/03:30pm 16.6 12.5 10.0 65 3.5 WSW 22 33 12 18 1017.3 1017.3 0.0
22/03:00pm 17.0 11.7 11.1 68 3.2 SW 30 35 16 19 1017.1 1017.1 0.0
22/02:30pm 17.1 11.1 10.2 64 3.6 SW 32 39 17 21 1016.8 1016.8 0.0
22/02:00pm 17.9 12.5 10.8 63 3.8 SW 30 39 16 21 1016.7 1016.7 0.0
22/01:30pm 17.9 11.5 8.7 55 4.7 SW 32 39 17 21 1016.7 1016.7 0.0
22/01:00pm 18.1 13.2 10.0 59 4.3 SW 26 33 14 18 1016.8 1016.8 0.0
22/12:30pm 17.4 11.7 11.0 66 3.4 SW 32 41 17 22 1017.1 1017.1 0.0
22/12:00pm 17.2 10.9 9.1 59 4.2 SW 32 41 17 22 1017.1 1017.1 0.0
22/11:30am 18.0 13.5 9.9 59 4.3 SW 24 33 13 18 1017.4 1017.4 0.0
22/11:00am 17.6 12.5 10.5 63 3.8 WSW 28 39 15 21 1017.7 1017.7 0.0
22/10:30am 16.7 11.2 9.1 61 3.9 WSW 28 37 15 20 1017.5 1017.5 0.0
22/10:00am 16.6 12.7 9.5 63 3.7 WSW 20 28 11 15 1017.4 1017.4 0.0
22/09:30am 15.9 12.5 10.4 70 2.9 W 19 28 10 15 1017.5 1017.5 0.0
22/09:00am 16.0 13.1 11.0 72 2.7 WSW 17 26 9 14 1017.4 1017.4 0.0
22/08:30am 15.7 13.1 10.7 72 2.6 W 15 20 8 11 1017.0 1017.0 0.0
22/08:00am 15.2 12.7 11.2 77 2.1 W 15 20 8 11 1016.9 1016.9 0.0
22/07:30am 14.9 12.4 11.1 78 2.0 W 15 19 8 10 1016.3 1016.3 0.0
22/07:00am 14.7 11.8 11.1 79 1.9 W 17 22 9 12 1016.0 1016.0 0.0
22/06:30am 14.5 11.2 10.9 79 1.9 W 19 28 10 15 1015.7 1015.7 0.0
22/06:00am 14.3 10.4 10.7 79 1.9 WSW 22 35 12 19 1015.6 1015.6 0.0
22/05:30am 14.3 10.6 10.3 77 2.1 W 20 30 11 16 1015.4 1015.4 0.0
22/05:00am 14.0 10.1 10.8 81 1.7 W 22 30 12 16 1015.2 1015.2 0.0
22/04:30am 13.8 9.3 11.3 85 1.3 WSW 26 32 14 17 1014.9 1014.9 0.0
22/04:21am 13.9 8.7 11.6 86 1.2 WSW 30 48 16 26 1014.9 1014.9 0.0
22/04:00am 14.5 8.8 11.3 81 1.7 SW 32 43 17 23 1014.7 1014.7 0.0
22/03:30am 14.5 8.3 11.5 82 1.6 SW 35 46 19 25 1014.8 1014.8 0.0
22/03:23am 14.4 11.1 11.7 84 1.4 W 20 46 11 25 1014.7 1014.7 0.0
22/03:00am 13.2 10.9 10.6 84 1.4 WNW 13 15 7 8 1014.8 1014.8 0.0
22/02:30am 12.4 10.7 9.8 84 1.3 NW 9 11 5 6 1014.9 1014.9 0.0
22/02:00am 12.4 10.7 10.0 85 1.2 WNW 9 11 5 6 1015.3 1015.3 0.0
22/01:30am 11.9 10.1 9.3 84 1.3 NNW 9 13 5 7 1015.3 1015.3 0.0
22/01:00am 11.9 9.5 8.7 81 1.6 NNW 11 15 6 8 1015.4 1015.4 0.0
22/12:30am 12.6 9.7 8.3 75 2.1 NW 13 15 7 8 1015.6 1015.6 0.0
22/12:00am 13.3 10.9 8.8 74 2.3 WNW 11 15 6 8 1016.0 1016.0 0.0
 
Date/Time
CST
Temp
°C
App
Temp
°C
Dew
Point
°C
Rel
Hum
%
Delta-T
°C
Wind Press
QNH
hPa
Press
MSL
hPa
Rain since
9am
mm
Dir  Spd
km/h
Gust
km/h
Spd
kts
Gust
kts
21/11:30pm 13.1 11.3 9.5 79 1.8 NW 9 13 5 7 1016.1 1016.1 0.0
21/11:00pm 12.7 11.1 10.2 85 1.3 N 9 13 5 7 1016.5 1016.5 0.0
21/10:30pm 12.5 10.5 10.2 86 1.2 N 11 13 6 7 1016.9 1016.9 0.0
21/10:00pm 12.3 10.3 10.0 86 1.2 N 11 13 6 7 1016.9 1016.9 0.0
21/09:30pm 12.3 9.9 10.2 87 1.1 N 13 17 7 9 1017.2 1017.2 0.0
21/09:00pm 12.3 9.9 9.9 85 1.2 N 13 17 7 9 1017.2 1017.2 0.0
21/08:30pm 12.9 10.7 9.2 78 1.9 NW 11 15 6 8 1017.3 1017.3 0.0
21/08:00pm 13.4 10.5 9.5 77 2.0 WSW 15 22 8 12 1017.7 1017.7 0.0
21/07:30pm 13.9 10.9 7.9 67 3.0 NW 13 17 7 9 1017.4 1017.4 0.0
21/07:00pm 14.5 11.0 7.1 61 3.6 WNW 15 20 8 11 1017.4 1017.4 0.0
21/06:30pm 14.7 11.0 6.5 58 4.0 WNW 15 26 8 14 1017.0 1017.0 0.0
21/06:00pm 14.7 11.0 6.5 58 4.0 NW 15 19 8 10 1016.7 1016.7 0.0
21/05:30pm 14.9 11.4 7.0 59 3.9 NW 15 20 8 11 1016.7 1016.7 0.0
21/05:00pm 15.1 10.6 6.9 58 4.0 NW 20 28 11 15 1016.6 1016.6 0.0
21/04:30pm 15.3 10.8 6.8 57 4.1 NW 20 26 11 14 1016.6 1016.6 0.0
21/04:00pm 15.4 10.9 6.2 54 4.4 WNW 19 24 10 13 1016.7 1016.7 0.0
21/03:30pm 15.5 12.1 6.0 53 4.6 WNW 13 17 7 9 1016.8 1016.8 0.0
21/03:00pm 15.3 12.5 5.2 51 4.8 NW 9 13 5 7 1017.0 1017.0 0.0
21/02:30pm 14.8 10.8 4.8 51 4.7 NNW 15 20 8 11 1017.2 1017.2 0.0
21/02:00pm 14.9 10.5 4.9 51 4.7 NNW 17 24 9 13 1017.3 1017.3 0.0
21/01:30pm 14.4 9.2 5.5 55 4.2 NW 22 30 12 16 1017.5 1017.5 0.0
21/01:00pm 14.3 11.4 4.6 52 4.5 NW 9 13 5 7 1018.0 1018.0 0.0
21/12:30pm 14.2 10.1 4.5 52 4.5 NNW 15 20 8 11 1018.3 1018.3 0.0
21/12:00pm 14.0 9.2 4.9 54 4.2 NW 19 26 10 14 1018.9 1018.9 0.0
21/11:30am 14.0 10.2 5.6 57 4.0 NW 15 20 8 11 1019.2 1019.2 0.0
21/11:00am 13.5 10.3 5.2 57 3.9 N 11 24 6 13 1019.5 1019.5 0.0
21/10:30am 12.8 10.5 7.3 69 2.7 N 9 13 5 7 1019.7 1019.7 0.0
21/10:00am 11.9 9.5 7.2 73 2.3 N 9 13 5 7 1020.0 1020.0 0.0
21/09:30am 11.6 9.1 6.5 71 2.4 N 9 13 5 7 1020.2 1020.2 0.0
21/09:00am 11.0 7.7 6.2 72 2.2 N 13 15 7 8 1020.1 1020.1 0.2
21/08:30am 10.8 7.8 6.2 73 2.1 NNE 11 15 6 8 1020.2 1020.2 0.2
21/08:00am 10.3 7.0 6.3 76 1.9 N 13 17 7 9 1020.0 1020.0 0.2
21/07:30am 9.7 7.5 6.2 79 1.6 WNW 7 15 4 8 1019.9 1019.9 0.2
21/07:00am 9.6 6.3 6.5 81 1.4 NNE 13 17 7 9 1019.7 1019.7 0.2
21/06:30am 9.4 5.9 5.6 77 1.7 N 13 15 7 8 1019.8 1019.8 0.2
21/06:00am 9.4 6.0 5.9 79 1.6 N 13 13 7 7 1019.7 1019.7 0.2
21/05:30am 9.7 6.2 5.5 75 1.9 NNE 13 17 7 9 1019.6 1019.6 0.2
21/05:00am 9.6 6.0 5.0 73 2.1 N 13 17 7 9 1019.5 1019.5 0.2
21/04:30am 9.8 6.2 5.0 72 2.2 N 13 17 7 9 1019.6 1019.6 0.2
21/04:00am 9.4 5.4 5.0 74 2.0 N 15 20 8 11 1019.5 1019.5 0.2
21/03:30am 9.2 5.4 5.6 78 1.6 N 15 19 8 10 1019.3 1019.3 0.2
21/03:00am 9.4 6.0 5.8 78 1.6 N 13 15 7 8 1019.4 1019.4 0.2
21/02:30am 9.9 6.8 5.7 75 1.9 N 11 15 6 8 1019.4 1019.4 0.2
21/02:00am 10.5 7.0 5.3 70 2.4 NNE 13 15 7 8 1019.5 1019.5 0.2
21/01:30am 9.7 5.7 4.7 71 2.2 ENE 15 17 8 9 1019.7 1019.7 0.2
21/01:00am 11.5 6.6 4.9 64 3.0 E 20 28 11 15 1019.8 1019.8 0.2
21/12:30am 13.7 9.4 5.3 57 3.9 SSE 17 22 9 12 1019.7 1019.7 0.2
21/12:00am 13.3 9.3 5.0 57 3.8 SE 15 20 8 11 1019.7 1019.7 0.2
 
Date/Time
CST
Temp
°C
App
Temp
°C
Dew
Point
°C
Rel
Hum
%
Delta-T
°C
Wind Press
QNH
hPa
Press
MSL
hPa
Rain since
9am
mm
Dir  Spd
km/h
Gust
km/h
Spd
kts
Gust
kts
20/11:30pm 13.7 9.0 5.1 56 4.0 SE 19 22 10 12 1020.0 1020.0 0.2

Latest Capital City Observations: Canberra | Sydney | Melbourne | Brisbane | Adelaide | Perth | Hobart | Darwin

Other formats

Comma delimited format used in spreadsheet applications
http://www.bom.gov.au/fwo/IDS60901/IDS60901.94677.axf

JavaScript Object Notation format (JSON) in row-major order
http://www.bom.gov.au/fwo/IDS60901/IDS60901.94677.json

Data quality

Most of these data are generated automatically and are frequently updated. Quality checks on data are not normally performed. It is possible for incorrect values to appear. Refer to information at About Latest Weather Observations and please check the disclaimer before using these data.